createdAt,value
2023-05-14T00:00:16.805Z,52.21
2023-05-14T00:03:10.894Z,51.96
2023-05-14T00:05:39.778Z,52.16
2023-05-14T00:08:06.818Z,52.23
2023-05-14T00:10:34.212Z,52.19
2023-05-14T00:13:01.628Z,52.26
2023-05-14T00:15:28.978Z,52.40
2023-05-14T00:17:56.077Z,52.43
2023-05-14T00:20:23.664Z,52.43
2023-05-14T00:22:52.210Z,52.25
2023-05-14T00:25:19.305Z,52.30
2023-05-14T00:27:46.586Z,52.15
2023-05-14T00:30:14.104Z,52.40
2023-05-14T00:32:41.475Z,52.34
2023-05-14T00:35:09.410Z,52.30
2023-05-14T00:37:37.392Z,52.47
2023-05-14T00:40:08.627Z,52.58
2023-05-14T00:42:40.965Z,52.89
2023-05-14T00:45:09.068Z,52.77
2023-05-14T00:47:36.553Z,52.94
2023-05-14T00:50:04.900Z,52.96
2023-05-14T00:52:33.337Z,53.10
2023-05-14T00:55:04.081Z,52.84
2023-05-14T00:57:32.487Z,52.91
2023-05-14T00:59:59.991Z,53.07
2023-05-14T01:02:27.133Z,53.22
2023-05-14T01:04:55.223Z,53.32
2023-05-14T01:07:30.481Z,53.43
2023-05-14T01:10:02.786Z,53.23
2023-05-14T01:12:39.571Z,53.18
2023-05-14T01:15:11.710Z,53.61
2023-05-14T01:17:42.269Z,53.64
2023-05-14T01:20:10.793Z,53.60
2023-05-14T01:22:39.552Z,53.69
2023-05-14T01:25:07.288Z,53.52
2023-05-14T01:27:42.048Z,53.67
2023-05-14T01:30:14.766Z,53.63
2023-05-14T01:32:44.712Z,53.71
2023-05-14T01:35:12.935Z,53.90
2023-05-14T01:37:43.748Z,53.63
2023-05-14T01:40:11.952Z,53.41
2023-05-14T01:42:39.153Z,53.49
2023-05-14T01:45:07.721Z,53.50
2023-05-14T01:47:34.714Z,53.40
2023-05-14T01:50:02.075Z,53.42
2023-05-14T01:52:29.320Z,53.15
2023-05-14T01:54:58.572Z,52.98
2023-05-14T01:57:25.586Z,53.25
2023-05-14T01:59:52.944Z,53.07
2023-05-14T02:02:20.137Z,53.10
2023-05-14T02:04:47.411Z,53.08
2023-05-14T02:07:14.795Z,52.85
2023-05-14T02:09:42.184Z,53.13
2023-05-14T02:12:11.719Z,52.94
2023-05-14T02:14:38.960Z,52.86
2023-05-14T02:17:06.084Z,52.87
2023-05-14T02:19:33.310Z,52.99
2023-05-14T02:22:01.260Z,53.07
2023-05-14T02:24:28.562Z,53.23
2023-05-14T02:26:55.554Z,53.64
2023-05-14T02:29:24.288Z,53.55
2023-05-14T02:31:51.274Z,53.82
2023-05-14T02:34:18.688Z,54.02
2023-05-14T02:36:45.716Z,53.94
2023-05-14T02:39:13.143Z,54.09
2023-05-14T02:41:40.211Z,54.31
2023-05-14T02:44:07.570Z,54.31
2023-05-14T02:46:35.986Z,54.36
2023-05-14T02:49:03.398Z,54.26
2023-05-14T02:51:30.435Z,54.56
2023-05-14T02:53:57.973Z,54.03
2023-05-14T02:56:30.337Z,54.09
2023-05-14T02:58:57.702Z,54.42
2023-05-14T03:01:25.690Z,54.40
2023-05-14T03:03:54.940Z,54.39
2023-05-14T03:06:21.926Z,54.84
2023-05-14T03:08:49.393Z,55.10
2023-05-14T03:11:16.394Z,55.14
2023-05-14T03:13:43.850Z,54.91
2023-05-14T03:16:11.414Z,54.97
2023-05-14T03:18:38.807Z,55.21
2023-05-14T03:21:09.027Z,54.86
2023-05-14T03:23:36.428Z,54.99
2023-05-14T03:26:04.935Z,54.83
2023-05-14T03:28:32.255Z,54.83
2023-05-14T03:30:59.729Z,55.23
2023-05-14T03:33:27.277Z,54.83
2023-05-14T03:35:54.266Z,54.58
2023-05-14T03:38:23.039Z,54.68
2023-05-14T03:40:50.281Z,54.63
2023-05-14T03:43:17.598Z,54.67
2023-05-14T03:45:44.581Z,54.41
2023-05-14T03:48:12.064Z,54.58
2023-05-14T03:50:39.314Z,54.43
2023-05-14T03:53:06.813Z,54.73
2023-05-14T03:55:35.231Z,54.55
2023-05-14T03:58:02.713Z,54.88
2023-05-14T04:00:29.700Z,54.44
2023-05-14T04:02:57.115Z,54.64
2023-05-14T04:05:24.213Z,54.76
2023-05-14T04:07:52.617Z,55.42
2023-05-14T04:10:19.798Z,55.64
2023-05-14T04:12:48.501Z,55.77
2023-05-14T04:15:15.910Z,55.65
2023-05-14T04:17:43.183Z,55.49
2023-05-14T04:20:10.844Z,55.55
2023-05-14T04:22:38.242Z,55.52
2023-05-14T04:25:06.185Z,55.85
2023-05-14T04:27:34.182Z,55.68
2023-05-14T04:30:03.000Z,55.79
2023-05-14T04:32:30.555Z,55.99
2023-05-14T04:34:57.490Z,56.06
2023-05-14T04:37:25.488Z,56.07
2023-05-14T04:39:52.516Z,56.11
2023-05-14T04:42:19.817Z,56.25
2023-05-14T04:44:47.080Z,56.28
2023-05-14T04:47:15.981Z,55.99
2023-05-14T04:49:43.527Z,56.49
2023-05-14T04:52:11.010Z,56.53
2023-05-14T04:54:38.283Z,56.69
2023-05-14T04:57:05.923Z,56.73
2023-05-14T04:59:32.882Z,56.86
2023-05-14T05:02:00.473Z,56.78
2023-05-14T05:04:29.064Z,56.81
2023-05-14T05:06:56.174Z,56.98
2023-05-14T05:09:23.239Z,56.84
2023-05-14T05:11:50.650Z,57.00
2023-05-14T05:14:17.807Z,56.73
2023-05-14T05:16:45.149Z,56.65
2023-05-14T05:19:12.286Z,56.73
2023-05-14T05:21:41.379Z,56.78
2023-05-14T05:24:08.696Z,56.74
2023-05-14T05:26:38.782Z,56.51
2023-05-14T05:29:05.994Z,56.75
2023-05-14T05:31:33.601Z,56.85
2023-05-14T05:34:01.455Z,56.49
2023-05-14T05:36:28.789Z,56.83
2023-05-14T05:38:57.280Z,56.88
2023-05-14T05:41:26.861Z,56.60
2023-05-14T05:43:53.799Z,56.87
2023-05-14T05:46:24.061Z,56.84
2023-05-14T05:48:51.345Z,56.90
2023-05-14T05:51:18.852Z,56.84
2023-05-14T05:53:46.245Z,57.12
2023-05-14T05:56:15.138Z,57.37
2023-05-14T05:58:42.417Z,57.71
2023-05-14T06:01:09.960Z,57.58
2023-05-14T06:03:37.010Z,57.52
2023-05-14T06:06:04.207Z,57.77
2023-05-14T06:08:31.650Z,57.76
2023-05-14T06:10:58.659Z,57.45
2023-05-14T06:13:27.613Z,57.86
2023-05-14T06:15:56.564Z,58.09
2023-05-14T06:18:24.010Z,57.92
2023-05-14T06:20:51.025Z,58.33
2023-05-14T06:23:18.449Z,58.45
2023-05-14T06:25:45.412Z,58.99
2023-05-14T06:28:12.656Z,59.17
2023-05-14T06:30:40.996Z,59.65
2023-05-14T06:33:08.513Z,59.70
2023-05-14T06:35:35.636Z,60.04
2023-05-14T06:38:03.036Z,60.35
2023-05-14T06:40:29.998Z,60.56
2023-05-14T06:42:57.301Z,61.02
2023-05-14T06:45:24.301Z,61.05
2023-05-14T06:47:53.265Z,61.54
2023-05-14T06:50:20.450Z,62.08
2023-05-14T06:52:48.251Z,61.88
2023-05-14T06:55:15.671Z,62.00
2023-05-14T06:57:43.150Z,61.98
2023-05-14T07:00:11.066Z,61.40
2023-05-14T07:02:38.485Z,61.50
2023-05-14T07:05:08.740Z,61.95
2023-05-14T07:07:36.099Z,62.11
2023-05-14T07:10:03.468Z,62.51
2023-05-14T07:12:31.178Z,62.65
2023-05-14T07:14:58.170Z,62.69
2023-05-14T07:17:25.576Z,62.72
2023-05-14T07:19:52.598Z,62.66
2023-05-14T07:22:21.435Z,62.65
2023-05-14T07:24:49.447Z,62.45
2023-05-14T07:27:19.447Z,62.72
2023-05-14T07:29:46.457Z,62.81
2023-05-14T07:32:15.604Z,63.09
2023-05-14T07:34:42.896Z,62.98
2023-05-14T07:37:10.324Z,63.16
2023-05-14T07:39:39.093Z,63.03
2023-05-14T07:42:07.764Z,63.35
2023-05-14T07:44:35.140Z,63.55
2023-05-14T07:47:02.461Z,63.75
2023-05-14T07:49:29.618Z,63.85
2023-05-14T07:51:58.699Z,63.60
2023-05-14T07:54:26.010Z,63.83
2023-05-14T07:56:54.573Z,64.15
2023-05-14T07:59:21.644Z,64.07
2023-05-14T08:01:49.025Z,63.64
2023-05-14T08:04:16.431Z,63.50
2023-05-14T08:06:43.801Z,63.21
2023-05-14T08:09:10.795Z,63.34
2023-05-14T08:11:39.210Z,63.33
2023-05-14T08:14:07.933Z,63.08
2023-05-14T08:16:35.377Z,62.64
2023-05-14T08:19:02.388Z,62.64
2023-05-14T08:21:29.727Z,62.57
2023-05-14T08:23:56.667Z,62.12
2023-05-14T08:26:24.101Z,62.16
2023-05-14T08:28:51.186Z,62.31
2023-05-14T08:31:19.904Z,61.15
2023-05-14T08:33:47.003Z,61.38
2023-05-14T08:36:14.346Z,61.39
2023-05-14T08:38:42.307Z,61.69
2023-05-14T08:41:11.653Z,61.42
2023-05-14T08:43:45.983Z,60.78
2023-05-14T08:46:15.536Z,60.51
2023-05-14T08:48:48.352Z,60.33
2023-05-14T08:51:15.848Z,60.66
2023-05-14T08:53:43.565Z,60.70
2023-05-14T08:56:10.996Z,60.60
2023-05-14T08:58:37.997Z,60.01
2023-05-14T09:01:05.813Z,60.30
2023-05-14T09:03:33.934Z,60.16
2023-05-14T09:06:04.256Z,60.28
2023-05-14T09:08:31.694Z,60.36
2023-05-14T09:10:59.007Z,60.40
2023-05-14T09:13:28.206Z,60.47
2023-05-14T09:15:57.423Z,60.37
2023-05-14T09:18:25.501Z,60.30
2023-05-14T09:20:53.347Z,60.21
2023-05-14T09:23:21.851Z,60.69
2023-05-14T09:25:49.208Z,60.77
2023-05-14T09:28:18.814Z,60.63
2023-05-14T09:30:50.433Z,60.97
2023-05-14T09:33:27.982Z,60.99
2023-05-14T09:35:59.988Z,61.18
2023-05-14T09:38:32.100Z,61.29
2023-05-14T09:41:00.200Z,61.09
2023-05-14T09:43:27.214Z,60.85
2023-05-14T09:45:54.510Z,61.28
2023-05-14T09:48:22.481Z,61.65
2023-05-14T09:50:49.892Z,61.69
2023-05-14T09:53:17.846Z,61.66
2023-05-14T09:55:46.938Z,61.67
2023-05-14T09:58:14.689Z,62.01
2023-05-14T10:00:45.586Z,62.07
2023-05-14T10:03:15.602Z,61.89
2023-05-14T10:05:46.363Z,62.65
2023-05-14T10:08:17.461Z,62.40
2023-05-14T10:10:47.307Z,62.88
2023-05-14T10:13:18.364Z,62.89
2023-05-14T10:15:49.644Z,62.80
2023-05-14T10:18:19.452Z,62.36
2023-05-14T10:20:53.412Z,62.06
2023-05-14T10:23:20.555Z,61.88
2023-05-14T10:25:52.658Z,61.81
2023-05-14T10:28:19.750Z,61.73
2023-05-14T10:30:47.083Z,62.06
2023-05-14T10:33:16.739Z,62.04
2023-05-14T10:36:04.747Z,61.90
2023-05-14T10:38:33.671Z,62.00
2023-05-14T10:41:03.987Z,61.30
2023-05-14T10:43:36.169Z,61.42
2023-05-14T10:46:04.294Z,61.32
2023-05-14T10:48:32.793Z,60.74
2023-05-14T10:51:01.255Z,60.29
2023-05-14T10:53:34.335Z,59.81
2023-05-14T10:56:08.231Z,59.97
2023-05-14T10:58:39.178Z,59.67
2023-05-14T11:01:07.416Z,60.39
2023-05-14T11:03:42.108Z,60.51
2023-05-14T11:06:11.333Z,59.07
2023-05-14T11:08:38.639Z,59.42
2023-05-14T11:11:08.760Z,59.82
2023-05-14T11:13:35.960Z,60.53
2023-05-14T11:16:21.985Z,61.12
2023-05-14T11:18:54.931Z,61.01
2023-05-14T11:21:22.428Z,60.83
2023-05-14T11:23:49.593Z,61.26
2023-05-14T11:26:21.418Z,61.48
2023-05-14T11:28:49.157Z,61.82
2023-05-14T11:31:16.551Z,61.82
2023-05-14T11:33:44.443Z,61.77
2023-05-14T11:36:12.658Z,62.11
2023-05-14T11:38:51.398Z,62.04
2023-05-14T11:41:22.835Z,61.37
2023-05-14T11:43:50.469Z,61.13
2023-05-14T11:46:18.740Z,60.45
2023-05-14T11:48:46.116Z,60.65
2023-05-14T11:51:23.822Z,58.86
2023-05-14T11:53:56.681Z,57.73
2023-05-14T11:56:37.424Z,58.23
2023-05-14T11:59:24.129Z,58.02
2023-05-14T12:01:54.857Z,57.03
2023-05-14T12:04:22.915Z,56.46
2023-05-14T12:06:50.901Z,56.50
2023-05-14T12:09:18.275Z,55.82
2023-05-14T12:11:48.106Z,54.16
2023-05-14T12:14:16.428Z,54.73
2023-05-14T12:16:45.089Z,55.21
2023-05-14T12:19:14.706Z,55.21
2023-05-14T12:21:44.208Z,55.39
2023-05-14T12:24:13.208Z,54.75
2023-05-14T12:26:45.490Z,54.39
2023-05-14T12:29:15.370Z,54.39
2023-05-14T12:31:47.354Z,54.66
2023-05-14T12:34:15.042Z,53.75
2023-05-14T12:36:42.375Z,52.16
2023-05-14T12:39:10.568Z,51.55
2023-05-14T12:41:38.322Z,50.98
2023-05-14T12:44:05.812Z,50.55
2023-05-14T12:46:34.540Z,51.21
2023-05-14T12:49:01.648Z,50.83
2023-05-14T12:51:29.139Z,51.15
2023-05-14T12:54:01.216Z,51.79
2023-05-14T12:56:28.773Z,51.64
2023-05-14T12:58:56.450Z,52.04
2023-05-14T13:01:24.349Z,51.99
2023-05-14T13:03:53.152Z,51.55
2023-05-14T13:06:20.692Z,51.97
2023-05-14T13:08:47.865Z,51.69
2023-05-14T13:11:15.206Z,51.67
2023-05-14T13:13:42.389Z,51.27
2023-05-14T13:16:09.705Z,51.46
2023-05-14T13:18:36.819Z,51.45
2023-05-14T13:21:06.470Z,51.23
2023-05-14T13:23:33.891Z,51.73
2023-05-14T13:26:01.255Z,51.98
2023-05-14T13:28:28.346Z,52.05
2023-05-14T13:31:07.373Z,51.54
2023-05-14T13:33:36.164Z,51.40
2023-05-14T13:36:05.581Z,51.63
2023-05-14T13:38:35.536Z,51.57
2023-05-14T13:41:03.024Z,51.20
2023-05-14T13:43:33.605Z,50.79
2023-05-14T13:46:02.455Z,50.89
2023-05-14T13:48:31.542Z,51.36
2023-05-14T13:51:02.050Z,49.43
2023-05-14T13:53:30.612Z,49.83
2023-05-14T13:55:58.601Z,49.92
2023-05-14T13:58:25.866Z,49.99
2023-05-14T14:00:53.835Z,50.27
2023-05-14T14:03:23.421Z,49.64
2023-05-14T14:05:52.600Z,50.04
2023-05-14T14:08:24.073Z,49.57
2023-05-14T14:10:55.508Z,49.74
2023-05-14T14:13:23.214Z,49.71
2023-05-14T14:15:52.460Z,48.73
2023-05-14T14:18:19.571Z,48.38
2023-05-14T14:20:46.915Z,48.10
2023-05-14T14:23:14.183Z,47.20
2023-05-14T14:25:41.493Z,46.77
2023-05-14T14:28:09.986Z,45.94
2023-05-14T14:30:37.440Z,44.79
2023-05-14T14:33:04.712Z,45.77
2023-05-14T14:35:33.407Z,45.43
2023-05-14T14:38:00.508Z,45.73
2023-05-14T14:40:28.008Z,46.33
2023-05-14T14:42:55.338Z,45.51
2023-05-14T14:45:24.522Z,45.38
2023-05-14T14:47:52.435Z,45.55
2023-05-14T14:50:19.954Z,45.69
2023-05-14T14:52:48.004Z,46.13
2023-05-14T14:55:15.458Z,45.56
2023-05-14T14:57:42.510Z,45.35
2023-05-14T15:00:14.519Z,44.97
2023-05-14T15:02:43.994Z,45.36
2023-05-14T15:05:11.386Z,44.95
2023-05-14T15:07:38.562Z,44.59
2023-05-14T15:10:09.218Z,44.28
2023-05-14T15:12:36.603Z,44.79
2023-05-14T15:15:04.230Z,45.04
2023-05-14T15:17:31.457Z,45.15
2023-05-14T15:20:01.814Z,44.76
2023-05-14T15:22:28.913Z,45.01
2023-05-14T15:24:57.853Z,45.12
2023-05-14T15:27:24.844Z,44.84
2023-05-14T15:29:53.196Z,44.40
2023-05-14T15:32:29.553Z,44.45
2023-05-14T15:35:01.470Z,45.17
2023-05-14T15:37:28.508Z,45.13
2023-05-14T15:39:58.121Z,45.76
2023-05-14T15:42:26.379Z,45.46
2023-05-14T15:44:53.825Z,45.51
2023-05-14T15:47:20.951Z,45.78
2023-05-14T15:49:48.316Z,45.97
2023-05-14T15:52:16.776Z,46.02
2023-05-14T15:54:46.026Z,46.25
2023-05-14T15:57:13.275Z,46.33
2023-05-14T15:59:41.112Z,46.01
2023-05-14T16:02:09.049Z,46.20
2023-05-14T16:04:36.890Z,46.39
2023-05-14T16:07:08.077Z,46.21
2023-05-14T16:09:38.517Z,46.12
2023-05-14T16:12:06.048Z,45.85
2023-05-14T16:14:34.161Z,45.90
2023-05-14T16:17:04.229Z,45.91
2023-05-14T16:19:31.572Z,45.88
2023-05-14T16:21:58.541Z,45.80
2023-05-14T16:24:25.836Z,45.71
2023-05-14T16:26:54.211Z,45.86
2023-05-14T16:29:21.626Z,46.24
2023-05-14T16:31:48.670Z,45.63
2023-05-14T16:34:16.420Z,45.85
2023-05-14T16:36:43.603Z,46.12
2023-05-14T16:39:11.542Z,45.74
2023-05-14T16:41:38.759Z,45.76
2023-05-14T16:44:07.792Z,46.00
2023-05-14T16:46:38.090Z,45.82
2023-05-14T16:49:07.241Z,45.46
2023-05-14T16:51:34.077Z,45.00
2023-05-14T16:54:03.880Z,45.47
2023-05-14T16:56:32.421Z,45.40
2023-05-14T16:58:59.965Z,45.36
2023-05-14T17:01:33.282Z,45.81
2023-05-14T17:04:02.360Z,45.95
2023-05-14T17:06:29.487Z,45.29
2023-05-14T17:08:59.357Z,45.38
2023-05-14T17:11:26.329Z,45.45
2023-05-14T17:13:59.043Z,45.69
2023-05-14T17:16:26.152Z,45.70
2023-05-14T17:18:57.483Z,45.27
2023-05-14T17:21:24.940Z,45.35
2023-05-14T17:23:52.270Z,45.19
2023-05-14T17:26:19.726Z,45.44
2023-05-14T17:28:46.752Z,45.00
2023-05-14T17:31:19.125Z,45.02
2023-05-14T17:33:47.973Z,45.23
2023-05-14T17:36:16.721Z,45.12
2023-05-14T17:38:43.703Z,45.00
2023-05-14T17:41:12.397Z,45.17
2023-05-14T17:43:39.562Z,45.01
2023-05-14T17:46:07.322Z,45.05
2023-05-14T17:48:34.371Z,45.00
2023-05-14T17:51:01.936Z,44.86
2023-05-14T17:53:30.322Z,45.11
2023-05-14T17:55:57.748Z,45.29
2023-05-14T17:58:24.727Z,45.12
2023-05-14T18:00:52.212Z,44.88
2023-05-14T18:03:20.370Z,45.37
2023-05-14T18:05:51.209Z,45.34
2023-05-14T18:08:18.289Z,45.48
2023-05-14T18:10:47.089Z,45.01
2023-05-14T18:13:14.108Z,45.43
2023-05-14T18:15:41.586Z,45.04
2023-05-14T18:18:08.603Z,45.49
2023-05-14T18:20:36.325Z,45.57
2023-05-14T18:23:03.545Z,45.72
2023-05-14T18:25:30.944Z,45.72
2023-05-14T18:27:59.465Z,45.78
2023-05-14T18:30:26.530Z,45.75
2023-05-14T18:32:53.718Z,46.06
2023-05-14T18:35:21.272Z,45.95
2023-05-14T18:37:48.423Z,46.09
2023-05-14T18:40:18.277Z,46.12
2023-05-14T18:42:47.076Z,46.39
2023-05-14T18:45:16.052Z,46.21
2023-05-14T18:47:43.208Z,46.34
2023-05-14T18:50:11.226Z,46.36
2023-05-14T18:52:38.730Z,46.61
2023-05-14T18:55:06.627Z,46.81
2023-05-14T18:57:34.044Z,46.91
2023-05-14T19:00:02.089Z,46.99
2023-05-14T19:02:31.392Z,47.02
2023-05-14T19:05:01.187Z,46.84
2023-05-14T19:07:30.269Z,46.81
2023-05-14T19:09:57.332Z,46.81
2023-05-14T19:12:24.761Z,46.96
2023-05-14T19:14:52.177Z,47.00
2023-05-14T19:17:20.608Z,47.16
2023-05-14T19:19:51.213Z,47.40
2023-05-14T19:22:19.512Z,47.30
2023-05-14T19:24:46.951Z,47.57
2023-05-14T19:27:16.281Z,47.60
2023-05-14T19:29:43.572Z,47.63
2023-05-14T19:32:12.455Z,47.78
2023-05-14T19:34:40.167Z,47.85
2023-05-14T19:37:08.917Z,47.69
2023-05-14T19:39:39.818Z,47.91
2023-05-14T19:42:06.942Z,48.05
2023-05-14T19:44:34.329Z,48.18
2023-05-14T19:47:03.147Z,48.21
2023-05-14T19:49:30.505Z,48.35
2023-05-14T19:51:57.504Z,48.39
2023-05-14T19:54:26.392Z,48.46
2023-05-14T19:56:53.420Z,48.52
2023-05-14T19:59:20.849Z,48.89
2023-05-14T20:01:48.355Z,48.80
2023-05-14T20:04:16.107Z,49.03
2023-05-14T20:06:45.490Z,49.21
2023-05-14T20:09:13.770Z,49.17
2023-05-14T20:11:43.805Z,49.27
2023-05-14T20:14:13.591Z,49.35
2023-05-14T20:16:41.712Z,49.53
2023-05-14T20:19:09.192Z,49.64
2023-05-14T20:21:37.837Z,49.51
2023-05-14T20:24:08.481Z,49.68
2023-05-14T20:26:35.740Z,49.68
2023-05-14T20:29:04.411Z,49.51
2023-05-14T20:31:31.560Z,49.83
2023-05-14T20:33:59.237Z,49.78
2023-05-14T20:36:26.351Z,49.96
2023-05-14T20:38:53.690Z,49.76
2023-05-14T20:41:20.952Z,50.02
2023-05-14T20:43:48.295Z,49.96
2023-05-14T20:46:16.836Z,50.07
2023-05-14T20:48:56.237Z,50.48
2023-05-14T20:51:32.747Z,50.48
2023-05-14T20:54:22.578Z,50.41
2023-05-14T20:56:49.622Z,50.45
2023-05-14T20:59:17.053Z,50.55
2023-05-14T21:01:49.576Z,50.76
2023-05-14T21:04:17.179Z,50.70
2023-05-14T21:06:44.437Z,50.73
2023-05-14T21:09:12.122Z,50.74
2023-05-14T21:11:39.100Z,50.79
2023-05-14T21:14:06.493Z,50.80
2023-05-14T21:16:34.034Z,50.81
2023-05-14T21:19:03.021Z,50.86
2023-05-14T21:21:29.997Z,51.06
2023-05-14T21:23:57.667Z,51.18
2023-05-14T21:26:26.027Z,51.06
2023-05-14T21:28:53.248Z,51.14
2023-05-14T21:31:20.439Z,51.19
2023-05-14T21:33:48.133Z,51.25
2023-05-14T21:36:20.430Z,51.38
2023-05-14T21:38:49.817Z,51.24
2023-05-14T21:41:16.828Z,51.57
2023-05-14T21:43:45.218Z,51.48
2023-05-14T21:46:12.323Z,51.60
2023-05-14T21:48:42.378Z,51.65
2023-05-14T21:51:09.604Z,51.77
2023-05-14T21:53:43.822Z,51.89
2023-05-14T21:56:10.938Z,51.91
2023-05-14T21:58:38.376Z,52.02
2023-05-14T22:01:05.835Z,52.01
2023-05-14T22:03:36.055Z,52.15
2023-05-14T22:06:03.554Z,52.26
2023-05-14T22:08:36.059Z,52.40
2023-05-14T22:11:04.797Z,52.50
2023-05-14T22:13:32.222Z,52.54
2023-05-14T22:16:09.215Z,52.51
2023-05-14T22:18:39.769Z,52.64
2023-05-14T22:21:06.843Z,52.75
2023-05-14T22:23:34.332Z,52.96
2023-05-14T22:26:01.510Z,52.99
2023-05-14T22:28:30.463Z,52.99
2023-05-14T22:30:59.745Z,53.27
2023-05-14T22:33:27.280Z,53.24
2023-05-14T22:35:54.753Z,53.15
2023-05-14T22:38:21.984Z,53.41
2023-05-14T22:40:49.686Z,53.51
2023-05-14T22:43:20.153Z,53.43
2023-05-14T22:45:48.623Z,53.42
2023-05-14T22:48:15.938Z,53.76
2023-05-14T22:50:43.459Z,53.68
2023-05-14T22:53:11.015Z,53.81
2023-05-14T22:55:38.124Z,53.66
2023-05-14T22:58:05.613Z,53.63
2023-05-14T23:00:32.621Z,54.04
2023-05-14T23:03:01.498Z,53.95
2023-05-14T23:05:28.623Z,54.00
2023-05-14T23:07:56.057Z,53.91
2023-05-14T23:10:23.050Z,54.02
2023-05-14T23:12:50.539Z,54.13
2023-05-14T23:15:17.636Z,54.02
2023-05-14T23:17:45.089Z,54.08
2023-05-14T23:20:14.090Z,54.03
2023-05-14T23:22:41.327Z,53.75
2023-05-14T23:25:09.525Z,53.80
2023-05-14T23:27:36.786Z,53.76
2023-05-14T23:30:04.242Z,53.61
2023-05-14T23:32:31.801Z,53.39
2023-05-14T23:34:58.773Z,53.65
2023-05-14T23:37:47.173Z,53.77
2023-05-14T23:40:15.831Z,53.63
2023-05-14T23:42:44.552Z,53.59
2023-05-14T23:45:12.740Z,53.31
2023-05-14T23:47:41.267Z,53.25
2023-05-14T23:50:08.837Z,53.58
2023-05-14T23:52:36.092Z,53.29
2023-05-14T23:55:12.696Z,53.44
2023-05-14T23:57:40.994Z,53.49
